Time;durP1;ratioP1;P1;durP2;ratioP2;P2;SDS_P1;SDS_P2;PMS_P1;PMS_P2;Temp;Humidity;BMP_temperature;BMP_pressure;BME280_temperature;BME280_humidity;BME280_pressure;Samples;Min_cycle;Max_cycle;Signal;HPM_P1;HPM_P2
2023/07/12 00:01:19;;;;;;;0.20;0.20;;;19.00;99.90;;;;;;4829919;29;20046;-89
2023/07/12 00:03:45;;;;;;;0.65;0.25;;;19.10;99.90;;;;;;4795640;29;20061;-88
2023/07/12 00:06:17;;;;;;;0.28;0.22;;;19.00;99.90;;;;;;4801421;29;20054;-88
2023/07/12 00:08:43;;;;;;;0.57;0.22;;;19.00;97.40;;;;;;4828828;29;20038;-89
2023/07/12 00:11:27;;;;;;;0.30;0.30;;;19.00;99.10;;;;;;4829490;29;20046;-90
2023/07/12 00:13:58;;;;;;;0.30;0.30;;;18.90;99.90;;;;;;4821823;29;20054;-88
2023/07/12 00:16:27;;;;;;;0.10;0.10;;;18.80;99.90;;;;;;4816382;29;21218;-89
2023/07/12 00:18:54;;;;;;;0.22;0.22;;;18.80;99.90;;;;;;4829093;29;20491;-88
2023/07/12 00:21:23;;;;;;;0.30;0.30;;;18.90;99.80;;;;;;4834829;29;20092;-89
2023/07/12 00:23:51;;;;;;;0.20;0.20;;;18.90;99.70;;;;;;4808669;29;20102;-88
2023/07/12 00:26:34;;;;;;;0.25;0.20;;;18.80;99.90;;;;;;4807081;29;20062;-93
2023/07/12 00:29:03;;;;;;;0.20;0.20;;;18.80;99.90;;;;;;4808427;29;20518;-88
2023/07/12 00:31:29;;;;;;;0.30;0.30;;;18.80;99.90;;;;;;4808117;29;20118;-88
2023/07/12 00:33:56;;;;;;;0.28;0.20;;;18.80;99.90;;;;;;4808094;29;20046;-88
2023/07/12 00:36:26;;;;;;;0.20;0.20;;;18.80;99.90;;;;;;4807775;29;20058;-88
2023/07/12 00:38:52;;;;;;;0.10;0.10;;;18.80;99.90;;;;;;4800280;29;20575;-88
2023/07/12 00:41:54;;;;;;;0.30;0.30;;;18.80;99.90;;;;;;4808090;29;20046;-91
2023/07/12 00:44:35;;;;;;;0.43;0.43;;;18.80;99.90;;;;;;4803221;29;20061;-93
2023/07/12 00:47:01;;;;;;;0.20;0.20;;;18.80;99.90;;;;;;4823100;29;20042;-88
2023/07/12 00:49:27;;;;;;;0.10;0.10;;;18.90;99.90;;;;;;4792630;29;20438;-88
2023/07/12 00:51:53;;;;;;;0.40;0.40;;;18.90;99.90;;;;;;4811783;29;20053;-88
2023/07/12 00:54:22;;;;;;;0.30;0.20;;;18.90;99.90;;;;;;4834301;29;20058;-89
2023/07/12 00:56:48;;;;;;;0.20;0.20;;;18.90;99.90;;;;;;4817302;29;20106;-88
2023/07/12 00:59:19;;;;;;;0.10;0.10;;;18.90;99.90;;;;;;4821744;29;20046;-88
2023/07/12 01:01:48;;;;;;;0.20;0.20;;;18.80;99.90;;;;;;4809024;29;20079;-89
2023/07/12 01:04:21;;;;;;;0.30;0.30;;;18.80;99.90;;;;;;4809155;29;20125;-89
2023/07/12 01:06:49;;;;;;;0.40;0.25;;;18.80;99.90;;;;;;4822084;29;20054;-89
2023/07/12 01:09:17;;;;;;;0.20;0.20;;;18.70;99.90;;;;;;4812881;29;20095;-90
2023/07/12 01:11:43;;;;;;;0.20;0.20;;;18.70;99.90;;;;;;4814857;29;20080;-89
2023/07/12 01:14:10;;;;;;;;;;;18.60;99.90;;;;;;4805049;29;20054;-89
2023/07/12 01:16:38;;;;;;;0.20;0.20;;;18.60;99.90;;;;;;4819670;29;20335;-89
2023/07/12 01:19:04;;;;;;;0.70;0.47;;;18.50;99.90;;;;;;4817899;29;20066;-90
2023/07/12 01:21:33;;;;;;;0.85;0.30;;;18.50;99.90;;;;;;4837929;29;20128;-90
2023/07/12 01:23:59;;;;;;;0.10;0.10;;;18.50;99.90;;;;;;4804960;29;20057;-89
2023/07/12 01:26:46;;;;;;;0.32;0.20;;;18.50;99.90;;;;;;4827750;29;20522;-90
2023/07/12 01:29:12;;;;;;;1.23;0.57;;;18.50;99.90;;;;;;4833477;29;20058;-89
2023/07/12 01:31:39;;;;;;;0.25;0.25;;;18.50;99.90;;;;;;4838318;29;20192;-89
2023/07/12 01:34:06;;;;;;;0.20;0.20;;;18.40;99.90;;;;;;4826165;29;20058;-89
2023/07/12 01:36:32;;;;;;;0.13;0.13;;;18.40;99.90;;;;;;4810640;29;20061;-89
2023/07/12 01:39:00;;;;;;;0.32;0.25;;;18.40;99.90;;;;;;4811317;29;20054;-89
2023/07/12 01:41:26;;;;;;;0.38;0.38;;;18.40;99.90;;;;;;4811224;29;20062;-91
2023/07/12 01:43:52;;;;;;;0.20;0.20;;;18.40;99.90;;;;;;4810744;29;20050;-89
2023/07/12 01:46:18;;;;;;;0.22;0.22;;;18.40;99.90;;;;;;4826319;29;20050;-89
2023/07/12 01:48:44;;;;;;;0.20;0.20;;;18.30;99.90;;;;;;4811304;29;20053;-89
2023/07/12 01:51:10;;;;;;;0.20;0.20;;;18.30;99.90;;;;;;4811164;29;20056;-88
2023/07/12 01:53:36;;;;;;;0.30;0.30;;;18.20;99.90;;;;;;4825913;29;20411;-89
2023/07/12 01:56:04;;;;;;;0.20;0.20;;;18.20;99.90;;;;;;4795621;29;20043;-89
2023/07/12 01:58:30;;;;;;;0.40;0.30;;;18.20;99.90;;;;;;4813187;29;20137;-91
2023/07/12 02:00:56;;;;;;;0.28;0.20;;;18.20;99.90;;;;;;4810657;29;20129;-89
2023/07/12 02:03:22;;;;;;;0.32;0.30;;;18.10;99.90;;;;;;4818224;29;20086;-88
2023/07/12 02:05:48;;;;;;;0.30;0.22;;;18.10;99.90;;;;;;4839282;29;20286;-90
2023/07/12 02:08:14;;;;;;;0.38;0.20;;;18.10;99.90;;;;;;4832786;29;20077;-89
2023/07/12 02:10:40;;;;;;;0.40;0.25;;;18.00;99.90;;;;;;4822551;29;20057;-86
2023/07/12 02:13:06;;;;;;;0.22;0.22;;;18.00;99.90;;;;;;4812335;29;20047;-87
2023/07/12 02:15:32;;;;;;;0.75;0.30;;;18.00;99.90;;;;;;4823914;29;20082;-90
2023/07/12 02:17:57;;;;;;;0.20;0.20;;;17.90;99.90;;;;;;4832418;29;20089;-90
2023/07/12 02:20:24;;;;;;;0.35;0.35;;;17.90;99.90;;;;;;4834862;29;20042;-89
2023/07/12 02:22:50;;;;;;;;;;;17.90;99.90;;;;;;4804087;29;20910;-88
2023/07/12 02:25:17;;;;;;;0.20;0.20;;;17.90;99.90;;;;;;4822159;29;19975;-88
2023/07/12 02:27:46;;;;;;;0.20;0.20;;;17.80;99.90;;;;;;4799586;29;20053;-89
2023/07/12 02:30:16;;;;;;;0.43;0.30;;;17.80;99.90;;;;;;4818339;29;20496;-88
2023/07/12 02:32:43;;;;;;;0.20;0.20;;;17.70;99.90;;;;;;4820673;29;20049;-91
2023/07/12 02:35:08;;;;;;;0.35;0.35;;;17.70;99.90;;;;;;4801267;29;20108;-88
2023/07/12 02:37:34;;;;;;;0.30;0.20;;;17.70;99.90;;;;;;4814374;29;20093;-90
2023/07/12 02:40:00;;;;;;;2.20;0.65;;;17.70;99.90;;;;;;4807025;29;20390;-88
2023/07/12 02:42:26;;;;;;;0.13;0.13;;;17.60;99.90;;;;;;4821228;29;20133;-88
2023/07/12 02:44:51;;;;;;;0.52;0.45;;;17.60;99.90;;;;;;4801317;29;20130;-88
2023/07/12 02:47:17;;;;;;;0.17;0.17;;;17.60;99.90;;;;;;4819804;29;20049;-88
2023/07/12 02:49:43;;;;;;;0.17;0.17;;;17.60;99.90;;;;;;4835031;29;20811;-88
2023/07/12 02:52:09;;;;;;;0.33;0.33;;;17.60;99.90;;;;;;4799502;29;20695;-88
2023/07/12 02:54:35;;;;;;;0.15;0.15;;;17.50;99.90;;;;;;4817428;29;20049;-92
2023/07/12 02:57:01;;;;;;;;;;;17.50;99.90;;;;;;4812525;29;20058;-88
2023/07/12 02:59:28;;;;;;;0.75;0.30;;;17.50;99.90;;;;;;4816293;29;19931;-88
2023/07/12 03:01:54;;;;;;;0.20;0.20;;;17.50;99.90;;;;;;4814091;29;20137;-89
2023/07/12 03:04:20;;;;;;;0.20;0.20;;;17.50;99.90;;;;;;4825525;29;20137;-88
2023/07/12 03:06:46;;;;;;;0.35;0.35;;;17.50;99.90;;;;;;4814439;29;20134;-88
2023/07/12 03:09:12;;;;;;;0.37;0.33;;;17.40;99.90;;;;;;4839136;29;20074;-88
2023/07/12 03:11:43;;;;;;;0.13;0.13;;;17.40;99.90;;;;;;4833816;29;20295;-91
2023/07/12 03:14:09;;;;;;;0.43;0.30;;;17.40;99.90;;;;;;4807077;29;20085;-89
2023/07/12 03:16:34;;;;;;;0.40;0.40;;;17.40;99.90;;;;;;4807592;29;20066;-89
2023/07/12 03:19:00;;;;;;;0.30;0.30;;;17.40;99.90;;;;;;4818765;29;20372;-89
2023/07/12 03:21:26;;;;;;;0.30;0.30;;;17.40;99.90;;;;;;4830942;29;20303;-88
2023/07/12 03:23:52;;;;;;;0.70;0.70;;;17.40;99.90;;;;;;4819435;29;20049;-88
2023/07/12 03:26:18;;;;;;;0.10;0.10;;;17.40;99.90;;;;;;4821836;29;20106;-88
2023/07/12 03:28:44;;;;;;;1.65;0.95;;;17.40;99.90;;;;;;4818970;29;20042;-89
2023/07/12 03:31:15;;;;;;;0.20;0.20;;;17.30;99.90;;;;;;4793574;29;20133;-88
2023/07/12 03:33:43;;;;;;;0.68;0.30;;;17.30;99.90;;;;;;4818284;29;20054;-91
2023/07/12 03:36:09;;;;;;;0.30;0.30;;;17.30;99.90;;;;;;4826652;29;20138;-88
2023/07/12 03:38:35;;;;;;;0.55;0.40;;;17.20;99.90;;;;;;4835777;29;20241;-88
2023/07/12 03:41:05;;;;;;;1.17;0.85;;;17.20;99.90;;;;;;4808646;29;20161;-88
2023/07/12 03:43:32;;;;;;;0.10;0.10;;;17.20;99.90;;;;;;4809071;29;20473;-88
2023/07/12 03:45:58;;;;;;;0.65;0.40;;;17.20;99.90;;;;;;4823824;29;20092;-88
2023/07/12 03:48:24;;;;;;;0.57;0.28;;;17.10;99.90;;;;;;4823957;29;20090;-88
2023/07/12 03:50:52;;;;;;;0.47;0.38;;;17.10;99.90;;;;;;4823915;29;20111;-88
2023/07/12 03:53:19;;;;;;;0.20;0.10;;;17.10;99.90;;;;;;4808511;29;20500;-88
2023/07/12 03:55:46;;;;;;;0.20;0.20;;;17.10;99.90;;;;;;4793358;29;20050;-89
2023/07/12 03:58:18;;;;;;;0.45;0.20;;;17.10;99.90;;;;;;4793532;29;20050;-89
2023/07/12 04:00:46;;;;;;;0.13;0.10;;;17.10;99.90;;;;;;4833948;29;20054;-93
2023/07/12 04:03:12;;;;;;;0.15;0.15;;;17.10;99.90;;;;;;4812398;29;20451;-89
2023/07/12 04:05:39;;;;;;;0.30;0.30;;;17.10;99.90;;;;;;4830149;29;20081;-88
2023/07/12 04:08:05;;;;;;;0.30;0.30;;;17.00;99.90;;;;;;4804676;29;20046;-88
2023/07/12 04:10:31;;;;;;;0.22;0.22;;;17.00;99.90;;;;;;4801409;29;20094;-88
2023/07/12 04:12:57;;;;;;;0.63;0.28;;;17.00;99.90;;;;;;4819680;29;20132;-88
2023/07/12 04:15:23;;;;;;;0.60;0.40;;;17.00;99.90;;;;;;4816912;29;20050;-91
2023/07/12 04:17:49;;;;;;;0.57;0.55;;;17.00;99.90;;;;;;4833139;29;20038;-88
2023/07/12 04:20:15;;;;;;;0.40;0.40;;;16.90;99.90;;;;;;4815024;29;20058;-88
2023/07/12 04:22:40;;;;;;;0.22;0.20;;;16.90;99.90;;;;;;4822624;29;20299;-88
2023/07/12 04:25:08;;;;;;;0.35;0.25;;;16.90;99.90;;;;;;4797953;29;20102;-89
2023/07/12 04:27:37;;;;;;;0.10;0.10;;;16.90;99.90;;;;;;4802021;29;20507;-88
2023/07/12 04:30:07;;;;;;;0.45;0.35;;;17.00;99.90;;;;;;4804723;29;20065;-88
2023/07/12 04:32:34;;;;;;;0.30;0.28;;;16.90;99.90;;;;;;4826565;29;20050;-88
2023/07/12 04:35:00;;;;;;;0.25;0.25;;;16.90;99.90;;;;;;4808608;29;20046;-88
2023/07/12 04:37:26;;;;;;;0.38;0.30;;;16.90;99.90;;;;;;4800680;29;20527;-88
2023/07/12 04:39:52;;;;;;;0.52;0.52;;;16.90;99.90;;;;;;4822445;29;20190;-88
2023/07/12 04:42:18;;;;;;;0.10;0.10;;;16.90;99.90;;;;;;4815554;29;20125;-88
2023/07/12 04:44:44;;;;;;;;;;;16.90;99.90;;;;;;4826628;29;20563;-88
2023/07/12 04:47:09;;;;;;;0.43;0.43;;;16.90;99.90;;;;;;4825939;29;19996;-89
2023/07/12 04:49:35;;;;;;;0.22;0.20;;;16.80;99.90;;;;;;4832013;29;20042;-88
2023/07/12 04:52:01;;;;;;;0.50;0.30;;;16.80;99.90;;;;;;4820365;29;20054;-89
2023/07/12 04:54:26;;;;;;;0.20;0.20;;;16.80;99.90;;;;;;4824403;29;20298;-89
2023/07/12 04:56:52;;;;;;;0.20;0.20;;;16.70;99.90;;;;;;4831679;29;20050;-89
2023/07/12 04:59:18;;;;;;;1.03;0.30;;;16.70;99.90;;;;;;4825414;29;20497;-88
2023/07/12 05:01:45;;;;;;;0.45;0.45;;;16.70;99.90;;;;;;4804604;29;20299;-90
2023/07/12 05:04:13;;;;;;;;;;;16.70;99.90;;;;;;4806965;29;20106;-89
2023/07/12 05:06:39;;;;;;;0.35;0.30;;;16.70;99.90;;;;;;4828991;29;19925;-88
2023/07/12 05:09:05;;;;;;;0.30;0.30;;;16.70;99.90;;;;;;4829345;29;20057;-89
2023/07/12 05:11:31;;;;;;;0.52;0.22;;;16.70;99.90;;;;;;4815945;29;20054;-89
2023/07/12 05:13:57;;;;;;;0.50;0.32;;;16.70;99.90;;;;;;4801436;29;20128;-89
2023/07/12 05:16:23;;;;;;;0.47;0.35;;;16.70;99.90;;;;;;4817055;29;20463;-88
2023/07/12 05:18:48;;;;;;;0.10;0.10;;;16.70;99.90;;;;;;4829708;29;20084;-89
2023/07/12 05:21:14;;;;;;;0.68;0.57;;;16.70;99.90;;;;;;4802885;29;20045;-88
2023/07/12 05:23:41;;;;;;;0.38;0.38;;;16.70;99.90;;;;;;4807286;29;20046;-88
2023/07/12 05:26:07;;;;;;;0.40;0.40;;;16.70;99.90;;;;;;4816774;29;20062;-88
2023/07/12 05:28:33;;;;;;;0.40;0.40;;;16.70;99.90;;;;;;4833217;29;20468;-88
2023/07/12 05:31:12;;;;;;;0.13;0.13;;;16.80;99.90;;;;;;4831948;29;20568;-88
2023/07/12 05:33:41;;;;;;;0.20;0.20;;;16.80;99.90;;;;;;4832155;29;20049;-88
2023/07/12 05:36:07;;;;;;;1.13;0.55;;;16.80;99.90;;;;;;4823245;29;20110;-88
2023/07/12 05:38:33;;;;;;;0.43;0.27;;;16.90;99.90;;;;;;4799119;29;20042;-88
2023/07/12 05:41:02;;;;;;;0.20;0.20;;;17.00;99.90;;;;;;4814176;29;20314;-89
2023/07/12 05:43:28;;;;;;;0.38;0.30;;;17.00;99.90;;;;;;4829004;29;20057;-88
2023/07/12 05:45:56;;;;;;;0.30;0.30;;;17.00;99.90;;;;;;4798949;29;20047;-90
2023/07/12 05:48:23;;;;;;;0.45;0.30;;;17.00;99.90;;;;;;4799199;29;20063;-88
2023/07/12 05:50:53;;;;;;;0.20;0.20;;;17.00;99.90;;;;;;4799067;29;20067;-88
2023/07/12 05:53:19;;;;;;;0.55;0.55;;;17.00;99.90;;;;;;4828756;29;20046;-88
2023/07/12 05:55:45;;;;;;;0.40;0.40;;;16.90;99.90;;;;;;4798852;29;20050;-85
2023/07/12 05:58:12;;;;;;;0.22;0.20;;;16.90;99.90;;;;;;4825684;29;20057;-86
2023/07/12 06:00:38;;;;;;;0.40;0.40;;;16.90;99.90;;;;;;4814338;29;20453;-86
2023/07/12 06:03:05;;;;;;;1.55;0.43;;;16.90;99.90;;;;;;4812593;29;20043;-86
2023/07/12 06:05:32;;;;;;;0.98;0.65;;;16.90;99.90;;;;;;4818433;29;20050;-87
2023/07/12 06:07:58;;;;;;;0.85;0.82;;;17.00;99.90;;;;;;4822286;29;20499;-89
2023/07/12 06:10:24;;;;;;;0.65;0.65;;;17.00;99.90;;;;;;4816858;29;20054;-86
2023/07/12 06:12:49;;;;;;;0.45;0.40;;;16.90;99.90;;;;;;4822897;29;20046;-84
2023/07/12 06:15:15;;;;;;;0.43;0.43;;;16.90;99.90;;;;;;4820433;29;20037;-87
2023/07/12 06:17:41;;;;;;;0.30;0.30;;;17.00;99.90;;;;;;4816589;29;20322;-86
2023/07/12 06:20:07;;;;;;;0.38;0.38;;;17.00;99.90;;;;;;4799583;29;20054;-89
2023/07/12 06:22:34;;;;;;;0.45;0.40;;;17.00;99.90;;;;;;4799196;29;20079;-89
2023/07/12 06:24:59;;;;;;;0.60;0.60;;;16.90;99.90;;;;;;4816444;29;20065;-88
2023/07/12 06:27:25;;;;;;;0.32;0.30;;;16.90;99.90;;;;;;4817699;29;20038;-86
2023/07/12 06:29:52;;;;;;;1.23;0.70;;;17.00;99.90;;;;;;4816511;29;20042;-86
2023/07/12 06:32:17;;;;;;;0.22;0.22;;;17.00;99.90;;;;;;4821280;29;20453;-86
2023/07/12 06:34:43;;;;;;;1.63;0.70;;;17.00;99.90;;;;;;4812168;29;20039;-88
2023/07/12 06:37:09;;;;;;;0.20;0.20;;;17.00;99.90;;;;;;4815435;29;20295;-85
2023/07/12 06:39:36;;;;;;;0.32;0.32;;;17.00;99.90;;;;;;4801100;29;20046;-83
2023/07/12 06:42:02;;;;;;;0.52;0.50;;;17.00;99.90;;;;;;4797626;29;20115;-83
2023/07/12 06:44:28;;;;;;;0.82;0.75;;;17.10;99.90;;;;;;4817339;29;20045;-83
2023/07/12 06:46:53;;;;;;;0.30;0.30;;;17.10;99.90;;;;;;4830393;29;20053;-85
2023/07/12 06:49:19;;;;;;;0.40;0.40;;;17.10;99.90;;;;;;4831062;29;20190;-85
2023/07/12 06:51:46;;;;;;;0.40;0.40;;;17.10;99.90;;;;;;4832784;29;20312;-84
2023/07/12 06:54:16;;;;;;;0.82;0.82;;;17.10;99.90;;;;;;4802733;29;20159;-84
2023/07/12 06:56:42;;;;;;;0.65;0.65;;;17.20;99.90;;;;;;4832060;29;20045;-84
2023/07/12 06:59:09;;;;;;;1.52;1.23;;;17.20;99.90;;;;;;4798612;29;20103;-86
2023/07/12 07:01:35;;;;;;;0.63;0.60;;;17.20;99.90;;;;;;4826952;29;20050;-86
2023/07/12 07:04:01;;;;;;;0.55;0.52;;;17.30;99.90;;;;;;4827946;29;20058;-84
2023/07/12 07:06:27;;;;;;;;;;;17.50;99.90;;;;;;4816906;29;21426;-87
2023/07/12 07:08:52;;;;;;;0.40;0.40;;;17.70;99.90;;;;;;4802958;29;19924;-86
2023/07/12 07:11:18;;;;;;;0.68;0.63;;;17.90;99.90;;;;;;4831436;29;20049;-86
2023/07/12 07:13:44;;;;;;;0.80;0.80;;;18.00;99.90;;;;;;4834947;29;20125;-86
2023/07/12 07:16:13;;;;;;;1.10;0.88;;;18.20;99.90;;;;;;4814486;29;20054;-85
2023/07/12 07:18:38;;;;;;;0.52;0.52;;;18.30;99.90;;;;;;4799722;29;20046;-83
2023/07/12 07:21:04;;;;;;;0.50;0.50;;;18.30;99.90;;;;;;4815036;29;20039;-86
2023/07/12 07:23:33;;;;;;;0.75;0.60;;;18.40;99.90;;;;;;4830734;29;20335;-86
2023/07/12 07:26:04;;;;;;;0.60;0.60;;;18.40;99.90;;;;;;4827557;29;20062;-86
2023/07/12 07:28:30;;;;;;;0.50;0.50;;;18.40;99.90;;;;;;4824278;29;20050;-83
2023/07/12 07:30:57;;;;;;;0.40;0.40;;;18.20;99.90;;;;;;4813974;29;20136;-85
2023/07/12 07:33:22;;;;;;;0.75;0.75;;;18.10;99.90;;;;;;4815437;29;20054;-85
2023/07/12 07:35:48;;;;;;;0.60;0.60;;;18.00;99.90;;;;;;4814801;29;20050;-85
2023/07/12 07:38:14;;;;;;;0.40;0.40;;;17.90;99.90;;;;;;4793051;29;20078;-90
2023/07/12 07:40:41;;;;;;;0.50;0.50;;;17.80;99.90;;;;;;4812622;29;20134;-86
2023/07/12 07:43:07;;;;;;;;;;;17.90;99.90;;;;;;4814363;29;20054;-88
2023/07/12 07:45:33;;;;;;;1.42;0.65;;;17.80;99.90;;;;;;4800534;29;19925;-87
2023/07/12 07:47:58;;;;;;;0.60;0.55;;;17.80;99.90;;;;;;4790866;29;20050;-88
2023/07/12 07:50:24;;;;;;;0.43;0.43;;;17.80;99.90;;;;;;4800134;29;20449;-90
2023/07/12 07:52:53;;;;;;;0.57;0.57;;;17.70;99.90;;;;;;4780773;29;20053;-89
2023/07/12 07:55:19;;;;;;;1.40;0.80;;;17.70;99.90;;;;;;4794986;29;20523;-88
2023/07/12 07:57:44;;;;;;;0.77;0.77;;;17.70;99.90;;;;;;4794880;29;20088;-89
2023/07/12 08:00:14;;;;;;;0.80;0.60;;;17.90;99.90;;;;;;4811018;29;20058;-94
2023/07/12 08:02:42;;;;;;;0.50;0.40;;;17.90;99.90;;;;;;4793082;29;20043;-87
2023/07/12 08:05:09;;;;;;;1.15;0.77;;;18.10;99.90;;;;;;4800123;29;20094;-88
2023/07/12 08:07:43;;;;;;;0.73;0.73;;;18.30;99.90;;;;;;4801035;29;20050;-87
2023/07/12 08:10:12;;;;;;;0.45;0.25;;;18.30;99.90;;;;;;4786992;29;20047;-88
2023/07/12 08:12:37;;;;;;;1.00;0.73;;;18.20;99.90;;;;;;4797610;29;20125;-90
2023/07/12 08:15:04;;;;;;;0.55;0.55;;;18.20;99.90;;;;;;4797876;29;20125;-89
2023/07/12 08:17:31;;;;;;;0.50;0.32;;;18.10;99.90;;;;;;4798136;29;20061;-88
2023/07/12 08:19:56;;;;;;;0.30;0.28;;;18.10;99.90;;;;;;4800094;29;20137;-91
2023/07/12 08:22:22;;;;;;;0.70;0.70;;;18.10;99.90;;;;;;4814263;29;20093;-91
2023/07/12 08:24:48;;;;;;;0.50;0.50;;;18.30;99.90;;;;;;4781194;29;20054;-92
2023/07/12 08:27:16;;;;;;;0.57;0.57;;;18.40;99.90;;;;;;4813182;29;20087;-92
2023/07/12 08:29:44;;;;;;;0.47;0.47;;;18.50;99.90;;;;;;4815149;29;20054;-93
2023/07/12 08:32:10;;;;;;;0.50;0.47;;;18.70;99.90;;;;;;4817317;29;20097;-91
2023/07/12 08:34:37;;;;;;;0.85;0.73;;;18.90;99.90;;;;;;4826759;29;20057;-94
2023/07/12 08:37:03;;;;;;;;;;;19.10;99.90;;;;;;4815424;29;20042;-93
2023/07/12 08:39:28;;;;;;;0.55;0.55;;;19.40;99.90;;;;;;4798967;29;20019;-91
2023/07/12 08:41:54;;;;;;;0.45;0.45;;;19.40;99.90;;;;;;4818967;29;20039;-92
2023/07/12 08:44:22;;;;;;;0.52;0.52;;;19.30;99.90;;;;;;4819589;29;20050;-93
2023/07/12 08:46:55;;;;;;;0.32;0.30;;;19.20;99.90;;;;;;4793740;29;20085;-94
2023/07/12 08:49:23;;;;;;;0.57;0.57;;;19.10;99.90;;;;;;4822974;29;20095;-93
2023/07/12 08:51:52;;;;;;;0.50;0.50;;;19.20;99.90;;;;;;4793156;29;20460;-94
2023/07/12 08:54:33;;;;;;;1.30;0.60;;;19.20;99.90;;;;;;4808380;29;20453;-93
2023/07/12 08:57:23;;;;;;;0.43;0.43;;;19.20;99.90;;;;;;4808582;29;20055;-92
2023/07/12 08:59:58;;;;;;;0.60;0.60;;;19.20;99.90;;;;;;4793445;29;20054;-92
2023/07/12 09:02:24;;;;;;;1.02;0.65;;;19.20;99.90;;;;;;4822816;29;20137;-93
2023/07/12 09:04:52;;;;;;;;;;;19.20;99.90;;;;;;4808576;29;20054;-93
2023/07/12 09:07:28;;;;;;;0.40;0.40;;;19.10;99.90;;;;;;4807076;29;19932;-90
2023/07/12 09:09:55;;;;;;;0.63;0.63;;;18.90;99.90;;;;;;4822022;29;20090;-94
2023/07/12 09:12:31;;;;;;;0.30;0.30;;;18.60;99.90;;;;;;4815202;29;20089;-93
2023/07/12 09:15:15;;;;;;;1.00;0.80;;;18.30;99.90;;;;;;4813309;29;20072;-93
2023/07/12 09:17:44;;;;;;;2.55;0.80;;;18.10;99.90;;;;;;4809268;29;20051;-92
2023/07/12 09:20:28;;;;;;;0.63;0.60;;;17.90;99.90;;;;;;4795528;29;20445;-91
2023/07/12 09:22:55;;;;;;;0.57;0.50;;;17.80;99.90;;;;;;4800726;29;20479;-92
2023/07/12 09:25:22;;;;;;;;;;;17.70;99.90;;;;;;4807457;29;20101;-90
2023/07/12 09:27:48;;;;;;;0.40;0.40;;;17.70;99.90;;;;;;4806785;29;20402;-91
2023/07/12 09:30:22;;;;;;;0.63;0.63;;;17.70;99.90;;;;;;4797330;29;20130;-91
2023/07/12 09:32:49;;;;;;;0.93;0.50;;;17.70;99.90;;;;;;4819467;29;20452;-88
2023/07/12 09:35:38;;;;;;;1.67;1.55;;;17.70;99.90;;;;;;4815197;29;20055;-89
2023/07/12 09:38:10;;;;;;;0.70;0.70;;;17.70;99.90;;;;;;4814139;29;20049;-88
2023/07/12 09:40:40;;;;;;;0.70;0.70;;;17.70;99.90;;;;;;4835112;29;20042;-89
2023/07/12 09:43:14;;;;;;;0.60;0.60;;;17.70;99.90;;;;;;4815143;29;20055;-89
2023/07/12 09:45:43;;;;;;;0.60;0.60;;;17.80;99.90;;;;;;4834030;29;20053;-88
2023/07/12 09:48:26;;;;;;;0.57;0.57;;;17.80;99.90;;;;;;4829433;29;20054;-88
2023/07/12 09:51:25;;;;;;;1.15;0.70;;;17.80;99.90;;;;;;4798066;29;20057;-88
2023/07/12 09:53:56;;;;;;;0.35;0.35;;;17.90;99.90;;;;;;4794982;29;20634;-88
2023/07/12 09:56:30;;;;;;;0.60;0.60;;;18.00;99.90;;;;;;4810247;29;20066;-91
2023/07/12 09:59:11;;;;;;;0.50;0.50;;;18.20;99.90;;;;;;4795429;29;20408;-89
2023/07/12 10:02:00;;;;;;;0.50;0.50;;;18.30;99.90;;;;;;4810408;29;20412;-89
2023/07/12 10:04:34;;;;;;;0.52;0.52;;;18.30;99.90;;;;;;4826373;29;20046;-90
2023/07/12 10:07:08;;;;;;;0.30;0.30;;;18.40;99.90;;;;;;4813495;29;20458;-89
2023/07/12 10:09:36;;;;;;;0.55;0.40;;;18.30;99.90;;;;;;4820042;29;20073;-89
2023/07/12 10:12:18;;;;;;;0.77;0.45;;;18.30;99.90;;;;;;4812582;29;20050;-83
2023/07/12 10:14:45;;;;;;;0.65;0.65;;;18.40;99.90;;;;;;4844786;29;20057;-85
2023/07/12 10:17:25;;;;;;;0.40;0.40;;;18.60;99.90;;;;;;4826615;29;20061;-89
2023/07/12 10:19:53;;;;;;;1.55;1.00;;;18.70;99.90;;;;;;4815443;29;20061;-87
2023/07/12 10:22:38;;;;;;;0.30;0.30;;;18.90;99.90;;;;;;4818822;29;20050;-91
2023/07/12 10:25:19;;;;;;;0.43;0.40;;;19.10;99.90;;;;;;4809717;29;20392;-89
2023/07/12 10:27:52;;;;;;;0.40;0.40;;;19.20;99.90;;;;;;4809134;29;20560;-85
2023/07/12 10:30:21;;;;;;;0.10;0.10;;;19.40;99.90;;;;;;4822119;29;20053;-85
2023/07/12 10:32:57;;;;;;;0.20;0.20;;;19.40;99.90;;;;;;4835986;29;20057;-87
2023/07/12 10:35:43;;;;;;;0.30;0.30;;;19.60;99.90;;;;;;4830333;29;20050;-86
2023/07/12 10:38:16;;;;;;;0.33;0.33;;;19.70;99.90;;;;;;4813978;29;20145;-86
2023/07/12 10:41:11;;;;;;;0.30;0.30;;;19.70;99.90;;;;;;4824922;29;20562;-84
2023/07/12 10:43:49;;;;;;;0.52;0.52;;;19.80;99.90;;;;;;4825651;29;20050;-86
2023/07/12 10:46:38;;;;;;;0.20;0.20;;;19.80;99.90;;;;;;4824889;29;20054;-86
2023/07/12 10:49:20;;;;;;;0.17;0.17;;;19.70;99.90;;;;;;4809447;29;20047;-85
2023/07/12 10:52:05;;;;;;;2.70;0.70;;;19.70;99.90;;;;;;4824543;29;20411;-85
2023/07/12 10:54:31;;;;;;;0.30;0.30;;;19.70;99.90;;;;;;4809667;29;20062;-94
2023/07/12 10:57:22;;;;;;;0.15;0.15;;;19.80;99.90;;;;;;4809784;29;20137;-87
2023/07/12 11:00:02;;;;;;;0.65;0.38;;;19.70;99.90;;;;;;4825118;29;20050;-88
2023/07/12 11:02:32;;;;;;;0.75;0.63;;;19.70;99.90;;;;;;4832332;29;20095;-89
2023/07/12 11:04:59;;;;;;;0.45;0.40;;;19.80;99.90;;;;;;4843054;29;20052;-91
2023/07/12 11:07:25;;;;;;;0.22;0.20;;;19.80;99.90;;;;;;4812392;29;20045;-92
2023/07/12 11:09:51;;;;;;;0.38;0.38;;;19.90;99.90;;;;;;4827484;29;20054;-90
2023/07/12 11:12:29;;;;;;;0.80;0.73;;;20.10;99.90;;;;;;4818373;29;20055;-88
2023/07/12 11:15:04;;;;;;;0.22;0.22;;;20.20;99.90;;;;;;4836356;29;20097;-87
2023/07/12 11:18:05;;;;;;;0.20;0.20;;;20.40;99.90;;;;;;4825371;29;20062;-86
2023/07/12 11:20:35;;;;;;;0.20;0.20;;;20.60;99.90;;;;;;4809260;29;20046;-85
2023/07/12 11:23:07;;;;;;;1.30;0.30;;;20.70;99.90;;;;;;4824624;29;20473;-83
2023/07/12 11:25:48;;;;;;;0.40;0.40;;;20.80;99.90;;;;;;4823805;29;20062;-87
2023/07/12 11:28:20;;;;;;;0.45;0.45;;;21.00;99.90;;;;;;4824597;29;20119;-85
2023/07/12 11:30:45;;;;;;;0.52;0.52;;;21.10;99.90;;;;;;4807370;29;20058;-85
2023/07/12 11:33:20;;;;;;;0.25;0.22;;;21.30;99.90;;;;;;4823719;29;20054;-84
2023/07/12 11:35:56;;;;;;;0.57;0.20;;;21.40;99.90;;;;;;4808163;29;20137;-86
2023/07/12 11:38:33;;;;;;;0.32;0.30;;;21.40;99.90;;;;;;4825801;29;20050;-86
2023/07/12 11:41:05;;;;;;;0.30;0.20;;;21.30;99.90;;;;;;4833215;29;20165;-84
2023/07/12 11:43:37;;;;;;;0.30;0.30;;;21.30;99.90;;;;;;4808131;29;20057;-84
2023/07/12 11:46:19;;;;;;;0.10;0.10;;;21.60;99.90;;;;;;4822507;29;20064;-84
2023/07/12 11:48:56;;;;;;;0.15;0.15;;;21.10;99.90;;;;;;4809051;29;20042;-84
2023/07/12 11:51:34;;;;;;;0.10;0.10;;;21.10;99.90;;;;;;4824430;29;20457;-84
2023/07/12 11:54:01;;;;;;;0.08;0.08;;;21.20;1.00;;;;;;4824147;29;20057;-85
2023/07/12 11:56:27;;;;;;;0.20;0.20;;;21.30;19.60;;;;;;4795335;29;20113;-84
2023/07/12 11:58:53;;;;;;;0.13;0.13;;;21.50;1.00;;;;;;4825826;29;20111;-85
2023/07/12 12:01:21;;;;;;;0.20;0.20;;;21.50;1.00;;;;;;4820880;29;20057;-85
2023/07/12 12:03:48;;;;;;;0.00;0.00;;;21.50;1.00;;;;;;4822729;29;20146;-84
2023/07/12 12:06:15;;;;;;;0.20;0.20;;;21.60;1.00;;;;;;4823152;29;20062;-85
2023/07/12 12:08:44;;;;;;;;;;;21.80;3.10;;;;;;4808207;29;20058;-90
2023/07/12 12:11:10;;;;;;;0.20;0.20;;;21.80;1.00;;;;;;4809085;29;19980;-86
2023/07/12 12:13:45;;;;;;;0.17;0.17;;;21.80;1.00;;;;;;4807153;29;20405;-87
2023/07/12 12:16:20;;;;;;;0.40;0.30;;;21.60;1.00;;;;;;4825728;29;20050;-87
2023/07/12 12:18:51;;;;;;;0.15;0.10;;;21.60;1.00;;;;;;4813841;29;20395;-87
2023/07/12 12:21:18;;;;;;;0.45;0.45;;;21.60;1.00;;;;;;4818024;29;20070;-87
2023/07/12 12:23:52;;;;;;;0.10;0.10;;;21.60;1.00;;;;;;4815691;29;20051;-86
2023/07/12 12:26:42;;;;;;;0.20;0.20;;;21.70;1.00;;;;;;4791969;29;20499;-87
2023/07/12 12:29:16;;;;;;;0.10;0.10;;;22.00;1.00;;;;;;4822185;29;20110;-87
2023/07/12 12:31:53;;;;;;;0.10;0.10;;;22.20;1.00;;;;;;4819466;29;20050;-86
2023/07/12 12:34:20;;;;;;;;;;;22.30;65.10;;;;;;4808707;29;20050;-87
2023/07/12 12:37:05;;;;;;;0.20;0.10;;;22.40;99.90;;;;;;4810038;29;19925;-89
2023/07/12 12:39:31;;;;;;;0.17;0.17;;;22.40;1.00;;;;;;4807397;29;20050;-85
2023/07/12 12:41:59;;;;;;;0.20;0.10;;;22.40;1.00;;;;;;4827836;29;20048;-86
2023/07/12 12:44:34;;;;;;;0.15;0.15;;;22.30;1.00;;;;;;4828140;29;20050;-89
2023/07/12 12:47:01;;;;;;;0.32;0.22;;;21.70;99.90;;;;;;4819956;29;20407;-90
2023/07/12 12:49:32;;;;;;;0.10;0.10;;;22.40;1.00;;;;;;4799087;29;20101;-90
2023/07/12 12:52:19;;;;;;;0.10;0.10;;;22.50;99.90;;;;;;4806953;29;20155;-93
2023/07/12 12:54:44;;;;;;;0.10;0.10;;;22.40;99.90;;;;;;4817423;29;20061;-89
2023/07/12 12:57:10;;;;;;;0.08;0.08;;;22.40;99.90;;;;;;4819194;29;20050;-90
2023/07/12 12:59:36;;;;;;;0.20;0.20;;;22.40;99.90;;;;;;4830371;29;20046;-89
2023/07/12 13:02:01;;;;;;;0.05;0.05;;;22.50;1.00;;;;;;4818997;29;20109;-89